Historyczne dane pomiarowe

Dodano dane terminowe – wersja testowa.

Dane z okresu 1951-2019

Wersja bazy: 1.34 [2019-03-16, lista zmian], aktualizacja planowana na 2019-04-15

Dane meteo z obszaru Polski uzyskane na podstawie danych udostępnionych przez Instytut Meteorologii i Gospodarki Wodnej – Państwowy Instytut Badawczy.

 

Wybierz Datę:    

       

TemperaturaWilgotnośćWiatrCiśnienieOpadyŚniegCzas trwania zjawisk
 Stacja t tx tn tng RH VA  wxwx mslp ppp RRR   cm mm wxwxwxwxwxwxwx
2019-06-13 23.2 31.6 13.3 12.6-- 0.0 0.7---- 0.0------------
2019-06-12 22.1 30.4 14.2 12.8-- 0.0 1.0---- 0.0------------
2019-06-11 21.8 29.8 14.4 12.8-------- 0.6------------
2019-06-10 21.6 28.4 14.9 13.4-- 2.7 2.0---- 0.0------------
2019-06-09 20.1 23.8 15.8 14.7-- 4.0 1.0---- 0.0------------
2019-06-08 20.5 28.3 13.9 14.6-- 1.3 1.0---- 0.0------------
2019-06-07 19.2 25.3 12.7 13.0-- 3.0 1.0---- 0.0------------
2019-06-06 17.8 24.3 10.3 9.3-- 4.0 1.3---- 6.4------------
2019-06-05 18.7 24.8 11.7 10.9-- 4.3 2.7---- 0.0------------
2019-06-04 18.8 25.3 11.7 10.7-- 4.0 1.7---- 0.2------------
2019-06-03 19.1 26.3 10.4 9.8-- 1.3 1.0---- 0.0------------
2019-06-02 18.3 24.8 10.4 9.5-- 1.3 0.7---- 0.0------------
2019-06-01 15.7 23.6 7.5 7.1-- 5.3 1.3---- 0.0------------
2019-05-31 15.2 20.4 10.7 10.7-- 3.3 0.7---- 0.0------------
2019-05-30 11.6 12.6 10.9 10.8-- 8.0 1.3---- 8.8------------
2019-05-29 15.1 19.7 11.9 10.6-- 8.0 3.3---- 2.5------------
2019-05-28 19.2 22.8 14.6 13.3-- 5.3 3.7---- 0.0------------
2019-05-27 17.8 24.4 9.3 9.3-- 4.7 1.7---- 1.8------------
2019-05-26 14.6 22.9 7.2 6.5-- 4.7 1.7---- 4.5------------
2019-05-25 15.7 20.9 12.5 11.7-- 5.3 2.7---- 0.0------------
2019-05-24 14.3 17.3 12.3 12.4-- 7.3 2.7---- 7.7------------
2019-05-23 13.9 17.8 10.0 9.3-- 8.0 0.7---- 6.7------------
2019-05-22 14.4 16.7 12.4 11.9-- 8.0 2.7---- 0.7------------
2019-05-21 13.6 17.2 11.5 10.1-- 8.0 2.0---- 33.8------------
2019-05-20 16.7 20.2 11.4 10.0-- 8.0 1.7---- 1.7------------
2019-05-19 17.8 23.5 14.3 13.9-- 5.3 1.7---- 0.4------------
2019-05-18 16.4 23.7 11.0 9.6-- 6.0 0.7---- 1.2------------
2019-05-17 15.8 20.2 12.5 11.6-- 6.0 0.7---- 0.0------------
2019-05-16 13.4 16.7 10.9 10.6-- 8.0 1.0---- 10.2------------
2019-05-15 11.2 15.1 7.6 7.6-- 8.0 1.3---- 4.3------------
2019-05-14 6.4 8.2 4.7 4.6-- 8.0 2.3---- 12.9------------
2019-05-13 9.7 14.7 8.0 8.1-- 8.0 3.3---- 5.0------------
2019-05-12 13.7 22.2 5.7 4.5-- 1.3 3.3---- 0.0------------
2019-05-11 12.9 18.7 9.0 8.2-- 4.3 1.7---- 0.0------------
2019-05-10 12.2 16.9 8.4 8.0-- 8.0 0.3---- 0.5------------
2019-05-09 9.1 15.8 0.0 -1.3-- 5.3 1.7---- 1.9------------
2019-05-08 7.7 14.8 -0.2 -1.5-- 1.3 1.3---- 0.0------------
2019-05-07 8.6 13.3 4.2 4.2-- 6.7 3.7---- 0.0------------
2019-05-06 4.8 6.4 3.9 4.2-- 8.0 3.0---- 7.3------------
2019-05-05 7.2 9.8 5.4 4.1-- 8.0 3.0---- 15.0------------
2019-05-04 7.8 12.5 2.7 1.2-- 8.0 0.7---- 2.6------------
2019-05-03 10.6 16.3 5.6 3.8-- 7.3 1.3---- 4.8------------
2019-05-02 12.4 18.7 5.3 3.8-- 5.0 0.3---- 0.0------------
2019-05-01 11.8 17.2 8.9 8.9-- 5.3 0.3---- 0.0------------
2019-04-30 11.7 14.8 10.2 10.1-- 8.0 1.0---- 1.7------------
2019-04-29 10.5 12.0 8.9 8.8-- 8.0 0.0---- 0.7------------
2019-04-28 10.5 13.5 9.2 9.0-- 8.0 3.7---- 26.6------------
2019-04-27 15.0 22.0 8.9 6.6-- 8.0 3.0---- 13.4------------
2019-04-26 16.6 26.3 4.8 2.2-- 3.3 3.0---- 0.1------------
2019-04-25 16.4 23.8 7.1 4.6-- 3.3 2.0---- 0.0------------
2019-04-24 13.5 18.7 7.9 5.9-- 5.3 0.0---- 0.0------------
2019-04-23 11.2 18.7 5.3 3.3-- 5.3 1.0---- 0.0------------
2019-04-22 9.8 16.1 3.8 1.9-- 4.0 2.0---- 0.0------------
2019-04-21 8.6 16.5 0.5 -1.3-- 4.7 0.7---- 0.5------------
2019-04-20 9.0 19.2 -2.4 -3.9-- 3.3 0.0---- 0.0------------
2019-04-19 8.8 17.7 -1.4 -2.8-- 0.0 0.3---- 0.0------------
2019-04-18 8.0 16.7 -0.2 -1.6-- 3.3 0.3---- 0.0------------
2019-04-17 7.5 13.5 3.4 3.5-- 6.0 0.3---- 0.1------------
2019-04-16 2.8 11.8 -5.6 -6.8-- 4.0 0.7---- 1.6------------
2019-04-15 4.4 10.8 -2.3 -4.4-- 0.0 0.7---- 0.0------------
214.9 ms

 

Źródłem pochodzenia danych jest Instytut Meteorologii i Gospodarki Wodnej – Państwowy Instytut Badawczy. Dane Instytutu Meteorologii i Gospodarki Wodnej – Państwowego Instytutu Badawczego zostały przetworzone.

Dane źródłowe można odnaleźć na stronie https://dane.imgw.pl